Time;durP1;ratioP1;P1;durP2;ratioP2;P2;SDS_P1;SDS_P2;PMS_P1;PMS_P2;Temp;Humidity;BMP_temperature;BMP_pressure;BME280_temperature;BME280_humidity;BME280_pressure;Samples;Min_cycle;Max_cycle;Signal;HPM_P1;HPM_P2
2023/03/04 00:02:04;;;;;;;8.50;7.60;;;;;;;19.23;43.89;97788.19;4949825;28;20222;-92
2023/03/04 00:04:30;;;;;;;8.30;7.50;;;;;;;19.21;43.43;97788.91;4976166;28;20761;-92
2023/03/04 00:06:57;;;;;;;8.70;7.80;;;;;;;19.22;44.07;97795.78;4996874;28;20272;-90
2023/03/04 00:09:23;;;;;;;9.13;8.20;;;;;;;18.35;44.13;97654.44;4974928;28;20634;-92
2023/03/04 00:11:50;;;;;;;8.97;7.70;;;;;;;18.42;43.97;97646.28;4961230;28;20258;-91
2023/03/04 00:14:17;;;;;;;8.80;7.87;;;;;;;18.58;43.74;97692.81;4972501;28;20301;-92
2023/03/04 00:16:44;;;;;;;8.13;7.33;;;;;;;19.07;44.53;97769.66;4996702;28;20202;-92
2023/03/04 00:19:10;;;;;;;8.50;7.40;;;;;;;18.86;43.90;97743.28;4973196;28;20205;-90
2023/03/04 00:21:37;;;;;;;9.83;7.80;;;;;;;18.99;43.77;97756.59;4980376;28;20689;-93
2023/03/04 00:24:04;;;;;;;8.37;7.47;;;;;;;15.76;43.93;97193.16;4988702;28;20265;-92
2023/03/04 00:26:30;;;;;;;7.10;6.40;;;;;;;19.04;43.91;97772.91;4964181;28;20238;-92
2023/03/04 00:28:57;;;;;;;8.83;7.87;;;;;;;18.67;43.94;97707.63;4980638;28;20244;-92
2023/03/04 00:31:24;;;;;;;9.27;8.27;;;;;;;18.99;43.91;97765.91;4980065;28;20729;-92
2023/03/04 00:33:50;;;;;;;8.37;7.50;;;;;;;17.98;43.98;97589.25;4964695;28;20214;-92
2023/03/04 00:36:17;;;;;;;8.57;7.77;;;;;;;18.63;44.03;97703.22;4956953;28;20213;-92
2023/03/04 00:38:43;;;;;;;8.77;7.87;;;;;;;18.74;44.36;97714.75;4964099;28;20297;-92
2023/03/04 00:41:10;;;;;;;8.87;7.97;;;;;;;19.23;43.81;97794.97;4979689;28;20210;-91
2023/03/04 00:43:36;;;;;;;8.47;7.37;;;;;;;18.89;43.99;97745.94;4969165;28;20199;-92
2023/03/04 00:46:03;;;;;;;8.87;7.97;;;;;;;18.36;43.82;97658.72;4977185;28;20234;-92
2023/03/04 00:48:30;;;;;;;8.90;8.00;;;;;;;18.56;43.68;97686.78;4995941;28;20206;-92
2023/03/04 00:50:56;;;;;;;8.67;7.77;;;;;;;18.63;43.77;97685.38;4966078;28;20602;-91
2023/03/04 00:53:23;;;;;;;8.63;7.77;;;;;;;18.95;44.04;97749.59;4958139;28;20227;-92
2023/03/04 00:55:49;;;;;;;8.80;7.80;;;;;;;18.06;43.82;97590.44;4976769;28;20210;-91
2023/03/04 00:58:16;;;;;;;8.43;7.53;;;;;;;18.16;43.89;97602.75;4975619;28;20236;-89
2023/03/04 01:00:42;;;;;;;8.83;7.93;;;;;;;19.07;44.26;97778.16;4960364;28;20214;-92
2023/03/04 01:03:09;;;;;;;8.63;7.73;;;;;;;18.48;44.32;97655.06;4975765;28;20230;-91
2023/03/04 01:05:36;;;;;;;9.93;8.63;;;;;;;18.79;43.89;97714.13;4964240;28;20580;-92
2023/03/04 01:08:03;;;;;;;9.03;7.93;;;;;;;18.38;43.78;97639.34;4979504;28;20210;-92
2023/03/04 01:10:29;;;;;;;9.00;7.63;;;;;;;18.74;43.74;97702.00;4949872;28;20285;-92
2023/03/04 01:12:56;;;;;;;8.67;7.87;;;;;;;18.77;43.88;97702.97;4990141;28;20226;-92
2023/03/04 01:15:23;;;;;;;8.20;7.40;;;;;;;18.04;43.79;97576.81;4950684;28;20290;-92
2023/03/04 01:17:49;;;;;;;9.00;8.10;;;;;;;18.66;43.82;97682.97;4963532;28;20210;-90
2023/03/04 01:20:16;;;;;;;9.17;8.10;;;;;;;18.63;43.90;97681.19;4960205;28;20572;-92
2023/03/04 01:22:42;;;;;;;8.37;7.50;;;;;;;19.01;43.94;97743.94;4972681;28;20214;-92
2023/03/04 01:25:09;;;;;;;9.07;7.60;;;;;;;18.42;43.43;97643.75;4955514;28;20238;-92
2023/03/04 01:27:36;;;;;;;8.03;7.23;;;;;;;18.77;43.87;97700.44;4952345;28;20209;-90
2023/03/04 01:30:03;;;;;;;9.00;7.90;;;;;;;19.11;44.06;97757.13;4958967;28;20210;-92
2023/03/04 01:32:30;;;;;;;8.27;7.47;;;;;;;18.73;43.61;97701.13;4967436;28;20276;-92
2023/03/04 01:34:56;;;;;;;8.77;7.87;;;;;;;18.36;44.12;97628.19;4959813;28;20210;-92
2023/03/04 01:37:23;;;;;;;8.23;7.43;;;;;;;19.40;43.58;97802.56;4972701;28;20202;-92
2023/03/04 01:39:49;;;;;;;10.03;8.57;;;;;;;17.89;43.66;97545.59;4983412;28;20697;-90
2023/03/04 01:42:21;;;;;;;9.03;8.13;;;;;;;18.37;43.84;97618.09;4976470;28;20228;-92
2023/03/04 01:44:47;;;;;;;8.07;7.27;;;;;;;19.02;43.98;97728.72;4945475;28;20742;-92
2023/03/04 01:47:14;;;;;;;8.00;7.20;;;;;;;18.74;43.74;97686.72;4984016;28;20269;-90
2023/03/04 01:49:41;;;;;;;9.93;8.50;;;;;;;19.20;43.79;97756.63;4977677;28;20202;-91
2023/03/04 01:52:13;;;;;;;7.97;7.17;;;;;;;18.42;43.96;97624.28;4971736;28;20315;-93
2023/03/04 01:54:40;;;;;;;8.27;7.47;;;;;;;19.01;43.94;97719.31;4968782;28;20204;-92
2023/03/04 01:57:19;;;;;;;8.37;7.57;;;;;;;18.90;43.86;97723.09;4973463;28;20300;-92
2023/03/04 01:59:46;;;;;;;8.37;7.47;;;;;;;18.78;43.69;97673.31;4958777;28;20202;-92
2023/03/04 02:02:13;;;;;;;8.53;7.60;;;;;;;18.70;43.76;97657.72;4961603;28;20581;-91
2023/03/04 02:04:40;;;;;;;8.63;7.80;;;;;;;18.93;43.86;97700.31;4962793;28;20286;-93
2023/03/04 02:07:06;;;;;;;8.23;7.33;;;;;;;18.64;43.30;97646.41;4994899;28;20214;-92
2023/03/04 02:09:34;;;;;;;8.00;7.20;;;;;;;18.82;43.61;97685.34;4957222;28;20588;-92
2023/03/04 02:12:01;;;;;;;9.63;8.30;;;;;;;19.01;43.73;97713.38;4972036;28;20278;-92
2023/03/04 02:14:27;;;;;;;8.50;7.60;;;;;;;18.74;43.59;97658.72;4975176;28;20206;-93
2023/03/04 02:16:54;;;;;;;8.93;8.03;;;;;;;19.19;43.05;97740.44;4977753;28;20720;-92
2023/03/04 02:19:23;;;;;;;8.70;7.83;;;;;;;19.41;43.70;97773.72;4946872;28;20211;-92
2023/03/04 02:21:50;;;;;;;9.17;8.27;;;;;;;19.16;43.50;97742.03;4983769;28;20254;-91
2023/03/04 02:24:33;;;;;;;9.93;8.93;;;;;;;18.89;43.59;97695.03;4955168;28;20301;-91
2023/03/04 02:26:59;;;;;;;8.13;7.37;;;;;;;18.78;43.76;97679.28;4964033;28;20202;-92
2023/03/04 02:29:26;;;;;;;9.57;8.07;;;;;;;19.16;44.03;97742.03;4968625;28;20207;-92
2023/03/04 02:31:53;;;;;;;9.17;8.20;;;;;;;18.30;43.57;97585.56;4950826;28;20309;-91
2023/03/04 02:34:24;;;;;;;8.83;7.93;;;;;;;18.94;43.48;97702.03;4994571;28;20567;-92
2023/03/04 02:36:52;;;;;;;8.13;7.37;;;;;;;18.03;43.74;97538.59;4977973;28;20214;-92
2023/03/04 02:39:18;;;;;;;8.67;7.83;;;;;;;19.39;43.57;97780.41;4978229;28;20300;-91
2023/03/04 02:41:49;;;;;;;9.50;8.00;;;;;;;19.01;43.73;97716.75;4989915;28;20310;-92
2023/03/04 02:44:17;;;;;;;8.00;7.20;;;;;;;18.80;43.65;97681.91;4975017;28;20206;-92
2023/03/04 02:46:43;;;;;;;8.43;7.63;;;;;;;18.82;43.62;97691.34;4966843;28;20673;-92
2023/03/04 02:49:10;;;;;;;8.90;8.00;;;;;;;19.16;43.63;97753.06;4967460;28;20729;-92
2023/03/04 02:51:36;;;;;;;8.73;7.83;;;;;;;18.93;43.66;97723.22;4946556;28;20230;-92
2023/03/04 02:54:03;;;;;;;8.77;7.73;;;;;;;17.69;43.41;97507.41;4951528;28;20219;-92
2023/03/04 02:56:30;;;;;;;9.07;8.17;;;;;;;18.70;43.26;97661.94;4959534;28;20202;-92
2023/03/04 02:58:56;;;;;;;9.27;8.27;;;;;;;17.75;43.43;97497.50;4974611;28;20207;-92
2023/03/04 03:01:27;;;;;;;8.83;7.63;;;;;;;18.15;43.65;97564.56;4991532;28;20261;-92
2023/03/04 03:03:54;;;;;;;7.80;7.00;;;;;;;17.76;43.86;97527.19;4974587;28;20199;-92
2023/03/04 03:06:20;;;;;;;8.70;7.80;;;;;;;18.50;43.20;97643.25;4991374;28;20289;-92
2023/03/04 03:08:47;;;;;;;8.97;8.07;;;;;;;18.98;43.75;97725.97;4988136;28;20229;-91
2023/03/04 03:11:13;;;;;;;9.10;7.90;;;;;;;18.93;43.75;97719.78;4957776;28;20218;-91
2023/03/04 03:13:40;;;;;;;8.50;7.60;;;;;;;18.61;43.72;97652.22;4963447;28;20253;-92
2023/03/04 03:16:06;;;;;;;9.13;8.23;;;;;;;18.62;43.66;97648.03;4962786;28;20207;-92
2023/03/04 03:18:33;;;;;;;8.63;7.73;;;;;;;18.93;43.38;97699.44;4970021;28;20217;-91
2023/03/04 03:21:00;;;;;;;8.47;7.67;;;;;;;19.02;43.64;97717.63;4983906;28;20731;-89
2023/03/04 03:23:26;;;;;;;8.27;7.47;;;;;;;18.61;43.66;97662.41;4974614;28;20198;-91
2023/03/04 03:25:53;;;;;;;8.80;8.00;;;;;;;19.20;43.23;97767.69;4981409;28;20591;-89
2023/03/04 03:28:19;;;;;;;8.83;7.90;;;;;;;18.93;44.09;97701.97;4957189;28;20301;-92
2023/03/04 03:30:46;;;;;;;8.63;7.77;;;;;;;18.37;43.38;97619.75;4962280;28;20210;-92
2023/03/04 03:33:12;;;;;;;8.97;8.07;;;;;;;18.66;43.34;97649.88;4965717;28;20325;-92
2023/03/04 03:35:39;;;;;;;8.40;7.60;;;;;;;18.27;43.74;97587.97;4965615;28;20238;-93
2023/03/04 03:38:05;;;;;;;8.47;7.57;;;;;;;19.16;43.29;97736.94;5014465;28;20206;-92
2023/03/04 03:40:32;;;;;;;9.10;7.73;;;;;;;18.80;43.42;97690.38;4995137;28;20286;-92
2023/03/04 03:42:59;;;;;;;9.00;8.10;;;;;;;18.62;43.18;97646.31;4959466;28;20250;-92
2023/03/04 03:45:25;;;;;;;8.53;7.73;;;;;;;18.08;43.41;97555.78;5014499;28;20198;-92
2023/03/04 03:47:52;;;;;;;8.97;8.07;;;;;;;18.55;43.55;97648.56;4995787;28;20240;-92
2023/03/04 03:50:18;;;;;;;9.17;7.33;;;;;;;18.85;43.36;97686.38;4980967;28;20202;-91
2023/03/04 03:52:45;;;;;;;9.13;7.70;;;;;;;19.15;43.25;97732.63;4961451;28;20223;-93
2023/03/04 03:55:11;;;;;;;9.07;7.93;;;;;;;19.04;43.55;97701.59;5004292;28;20325;-92
2023/03/04 03:57:38;;;;;;;9.87;8.40;;;;;;;18.61;43.48;97641.16;4964450;28;20206;-92
2023/03/04 04:00:05;;;;;;;9.10;7.90;;;;;;;19.17;43.67;97737.00;4980594;28;20210;-92
2023/03/04 04:02:31;;;;;;;8.67;7.77;;;;;;;18.88;43.60;97690.72;4970949;28;20761;-92
2023/03/04 04:04:58;;;;;;;8.83;7.17;;;;;;;18.32;43.35;97591.56;4959393;28;20585;-92
2023/03/04 04:07:25;;;;;;;8.17;7.37;;;;;;;18.72;43.50;97656.13;4968442;28;20672;-91
2023/03/04 04:09:51;;;;;;;8.20;7.40;;;;;;;18.66;43.67;97649.88;4964769;28;20206;-92
2023/03/04 04:12:18;;;;;;;8.70;7.80;;;;;;;18.93;43.43;97696.88;4983953;28;20228;-92
2023/03/04 04:14:44;;;;;;;8.20;7.40;;;;;;;18.66;43.58;97648.22;4950981;28;20203;-91
2023/03/04 04:17:12;;;;;;;8.47;7.47;;;;;;;18.73;43.41;97659.50;4958578;28;20211;-91
2023/03/04 04:19:39;;;;;;;8.77;7.77;;;;;;;19.17;43.38;97734.44;4962091;28;20199;-92
2023/03/04 04:22:24;;;;;;;8.00;7.20;;;;;;;18.55;43.46;97640.91;4991527;28;20708;-92
2023/03/04 04:24:50;;;;;;;8.77;7.87;;;;;;;18.01;43.65;97541.06;4975649;28;20257;-89
2023/03/04 04:27:17;;;;;;;8.40;7.60;;;;;;;19.02;43.13;97704.91;4960805;28;20292;-90
2023/03/04 04:29:44;;;;;;;8.83;7.43;;;;;;;18.73;43.39;97662.06;5013799;28;20642;-92
2023/03/04 04:32:12;;;;;;;8.13;7.27;;;;;;;17.96;43.43;97526.41;4991166;28;20234;-92
2023/03/04 04:34:38;;;;;;;8.50;7.60;;;;;;;19.23;43.46;97755.09;5008167;28;20665;-92
2023/03/04 04:37:05;;;;;;;8.53;7.63;;;;;;;18.79;43.79;97680.13;4964379;28;20681;-92
2023/03/04 04:39:31;;;;;;;8.83;7.93;;;;;;;19.07;43.42;97723.81;4962336;28;20575;-92
2023/03/04 04:41:58;;;;;;;8.50;7.60;;;;;;;18.77;43.71;97669.88;4996222;28;20226;-92
2023/03/04 04:44:24;;;;;;;8.83;7.50;;;;;;;18.74;43.52;97682.50;4974369;28;20709;-92
2023/03/04 04:46:51;;;;;;;8.83;7.93;;;;;;;18.63;43.31;97639.56;4964073;28;20206;-89
2023/03/04 04:49:17;;;;;;;8.90;8.10;;;;;;;19.06;43.46;97730.56;4960437;28;20619;-91
2023/03/04 04:51:44;;;;;;;9.03;8.13;;;;;;;18.54;43.22;97642.63;4960079;28;20227;-92
2023/03/04 04:54:11;;;;;;;8.20;7.40;;;;;;;18.41;43.53;97604.69;4992385;28;20257;-92
2023/03/04 04:56:37;;;;;;;8.00;7.20;;;;;;;18.45;43.55;97620.97;4977543;28;20202;-91
2023/03/04 04:59:07;;;;;;;8.77;7.83;;;;;;;18.64;43.46;97659.13;4958460;28;20217;-92
2023/03/04 05:01:34;;;;;;;8.80;7.77;;;;;;;18.93;43.61;97702.84;4969228;28;20309;-92
2023/03/04 05:04:00;;;;;;;8.47;7.50;;;;;;;18.77;43.53;97674.97;4963713;28;20285;-91
2023/03/04 05:06:27;;;;;;;9.10;8.20;;;;;;;19.19;43.75;97758.28;4951407;28;20213;-90
2023/03/04 05:08:53;;;;;;;9.27;8.13;;;;;;;18.73;43.48;97669.69;4976233;28;20269;-91
2023/03/04 05:11:20;;;;;;;9.17;8.17;;;;;;;19.32;43.48;97767.34;4963704;28;20226;-91
2023/03/04 05:13:47;;;;;;;8.20;7.40;;;;;;;18.93;43.48;97707.06;4979423;28;20218;-92
2023/03/04 05:16:15;;;;;;;8.47;7.53;;;;;;;18.71;43.51;97673.88;4978523;28;20213;-92
2023/03/04 05:18:41;;;;;;;9.10;8.20;;;;;;;19.23;43.45;97766.94;4977137;28;20206;-92
2023/03/04 05:21:08;;;;;;;8.93;8.03;;;;;;;19.31;43.53;97780.91;4973038;28;20561;-92
2023/03/04 05:23:36;;;;;;;8.57;7.67;;;;;;;19.03;43.52;97727.00;4976697;28;20205;-91
2023/03/04 05:26:03;;;;;;;8.77;7.97;;;;;;;18.81;43.61;97694.69;4973510;28;20206;-92
2023/03/04 05:28:29;;;;;;;8.47;7.67;;;;;;;18.85;43.50;97700.75;4957520;28;20217;-92
2023/03/04 05:30:56;;;;;;;9.67;7.83;;;;;;;19.33;43.35;97777.63;4962000;28;20658;-92
2023/03/04 05:33:23;;;;;;;8.67;7.77;;;;;;;18.27;42.99;97600.69;4989923;28;20491;-92
2023/03/04 05:35:49;;;;;;;9.67;8.77;;;;;;;18.59;43.55;97668.25;4962047;28;20203;-92
2023/03/04 05:38:17;;;;;;;8.60;7.77;;;;;;;18.59;43.55;97656.38;4971348;28;20211;-92
2023/03/04 05:40:44;;;;;;;8.73;7.83;;;;;;;19.20;43.55;97751.53;4986417;28;20226;-89
2023/03/04 05:43:11;;;;;;;9.13;7.93;;;;;;;18.40;43.53;97608.06;5004957;28;20218;-91
2023/03/04 05:45:38;;;;;;;9.00;8.10;;;;;;;18.68;43.43;97654.22;4953231;28;20217;-92
2023/03/04 05:48:04;;;;;;;9.23;7.80;;;;;;;18.57;43.43;97640.19;4962090;28;20561;-92
2023/03/04 05:50:31;;;;;;;8.67;7.77;;;;;;;18.68;43.56;97664.41;4985465;28;20211;-92
2023/03/04 05:52:57;;;;;;;8.70;7.80;;;;;;;18.79;43.31;97692.88;4958954;28;20257;-92
2023/03/04 05:55:24;;;;;;;8.03;7.03;;;;;;;18.62;43.47;97658.22;4964117;28;20222;-92
2023/03/04 05:57:50;;;;;;;8.27;7.43;;;;;;;19.01;43.34;97738.81;4974134;28;20677;-91
2023/03/04 06:00:17;;;;;;;8.97;8.07;;;;;;;19.36;43.23;97792.19;4962896;28;20212;-92
2023/03/04 06:02:44;;;;;;;9.07;7.97;;;;;;;19.13;43.35;97747.00;4994355;28;20261;-92
2023/03/04 06:05:11;;;;;;;8.20;7.40;;;;;;;19.13;43.41;97749.53;5003797;28;20206;-92
2023/03/04 06:07:38;;;;;;;8.77;7.83;;;;;;;18.31;43.46;97616.94;4976744;28;20233;-91
2023/03/04 06:10:05;;;;;;;8.33;7.53;;;;;;;18.64;43.33;97692.22;5000775;28;20218;-92
2023/03/04 06:12:32;;;;;;;9.30;8.10;;;;;;;18.99;43.31;97741.31;4978293;28;20226;-92
2023/03/04 06:14:58;;;;;;;9.03;8.13;;;;;;;18.69;43.58;97690.75;4960550;28;20317;-91
2023/03/04 06:17:25;;;;;;;8.67;7.87;;;;;;;18.82;43.20;97723.56;4962279;28;20206;-91
2023/03/04 06:19:52;;;;;;;8.90;8.00;;;;;;;18.79;43.29;97718.31;4962128;28;20279;-91
2023/03/04 06:22:18;;;;;;;8.53;7.63;;;;;;;18.62;43.53;97704.03;4978454;28;20233;-92
2023/03/04 06:24:45;;;;;;;8.57;7.70;;;;;;;18.75;43.30;97722.44;4946055;28;20694;-91
2023/03/04 06:27:12;;;;;;;8.80;7.60;;;;;;;18.56;43.55;97684.25;4975230;28;20237;-92
2023/03/04 06:29:38;;;;;;;8.57;7.67;;;;;;;18.62;43.33;97696.38;5011576;28;20213;-92
2023/03/04 06:32:05;;;;;;;8.40;7.60;;;;;;;18.56;43.24;97702.06;4993974;28;20222;-92
2023/03/04 06:34:32;;;;;;;8.27;7.37;;;;;;;19.35;43.50;97832.06;4976706;28;20214;-92
2023/03/04 06:36:59;;;;;;;9.57;7.53;;;;;;;19.13;43.26;97788.59;4967137;28;20238;-92
2023/03/04 06:39:25;;;;;;;9.03;8.13;;;;;;;18.59;43.43;97703.88;4968267;28;20265;-92
2023/03/04 06:41:52;;;;;;;8.27;7.40;;;;;;;18.59;43.44;97708.97;4961848;28;20226;-91
2023/03/04 06:44:18;;;;;;;8.67;7.83;;;;;;;18.60;43.38;97720.91;4955188;28;20226;-92
2023/03/04 06:46:45;;;;;;;8.60;7.70;;;;;;;18.99;43.45;97779.50;4967330;28;20297;-92
2023/03/04 06:49:12;;;;;;;8.37;7.47;;;;;;;18.45;43.59;97676.97;4983663;28;20583;-92
2023/03/04 06:51:38;;;;;;;8.50;7.57;;;;;;;19.17;43.33;97820.19;4960894;28;20254;-92
2023/03/04 06:54:05;;;;;;;8.13;7.33;;;;;;;19.13;43.55;97803.03;4962164;28;20218;-92
2023/03/04 06:56:31;;;;;;;9.37;8.37;;;;;;;19.30;43.51;97832.69;4976693;28;20290;-92
2023/03/04 06:58:58;;;;;;;8.57;7.63;;;;;;;18.54;42.94;97705.34;4977855;28;20229;-92
2023/03/04 07:01:25;;;;;;;9.00;8.10;;;;;;;18.41;43.43;97698.84;4958839;28;20218;-91
2023/03/04 07:03:52;;;;;;;8.50;7.50;;;;;;;18.95;43.53;97790.34;4970847;28;20642;-92
2023/03/04 07:06:20;;;;;;;8.43;7.53;;;;;;;18.96;43.45;97781.94;4974731;28;20203;-92
2023/03/04 07:08:47;;;;;;;8.67;7.77;;;;;;;18.67;43.38;97723.78;4951526;28;20202;-92
2023/03/04 07:11:14;;;;;;;8.03;7.23;;;;;;;18.89;43.73;97787.53;4958483;28;20234;-92
2023/03/04 07:13:40;;;;;;;9.30;7.53;;;;;;;18.72;43.22;97752.84;4971316;28;20261;-92
2023/03/04 07:16:08;;;;;;;8.67;7.73;;;;;;;18.69;43.13;97742.53;4951071;28;20206;-91
2023/03/04 07:18:35;;;;;;;8.50;7.63;;;;;;;18.55;43.24;97727.44;4947474;28;20199;-91
2023/03/04 07:21:02;;;;;;;8.40;7.50;;;;;;;18.47;43.30;97727.09;4955113;28;20666;-92
2023/03/04 07:23:28;;;;;;;8.63;7.67;;;;;;;18.74;43.12;97756.31;4953991;28;20651;-92
2023/03/04 07:25:55;;;;;;;8.70;7.80;;;;;;;18.78;43.37;97770.94;4959938;28;20654;-92
2023/03/04 07:28:25;;;;;;;8.20;7.40;;;;;;;19.10;43.19;97825.81;4971187;28;20209;-92
2023/03/04 07:30:51;;;;;;;8.53;7.63;;;;;;;18.60;43.51;97738.72;4990336;28;20202;-91
2023/03/04 07:33:18;;;;;;;8.30;7.50;;;;;;;18.92;43.42;97792.75;4948925;28;20219;-91
2023/03/04 07:35:44;;;;;;;8.37;7.07;;;;;;;18.98;43.56;97822.75;4960102;28;20203;-91
2023/03/04 07:38:11;;;;;;;8.10;7.30;;;;;;;18.30;43.06;97691.53;4974072;28;20293;-92
2023/03/04 07:40:38;;;;;;;7.90;7.10;;;;;;;18.97;43.39;97818.44;4966193;28;20211;-92
2023/03/04 07:43:04;;;;;;;8.63;7.73;;;;;;;18.46;43.32;97758.47;4976411;28;20668;-92
2023/03/04 07:45:31;;;;;;;7.90;7.20;;;;;;;18.43;43.23;97737.09;4969713;28;20229;-91
2023/03/04 07:47:58;;;;;;;7.60;6.80;;;;;;;19.00;43.28;97833.84;4974182;28;20252;-91
2023/03/04 07:50:24;;;;;;;7.23;6.53;;;;;;;18.63;43.44;97779.56;5004654;28;20198;-91
2023/03/04 07:52:51;;;;;;;8.67;7.33;;;;;;;18.34;43.25;97724.81;4984963;28;20249;-92
2023/03/04 07:55:17;;;;;;;8.83;7.50;;;;;;;18.39;43.38;97740.31;4993725;28;20320;-92
2023/03/04 07:57:45;;;;;;;7.63;6.83;;;;;;;18.85;43.44;97818.78;4961279;28;20198;-92
2023/03/04 08:00:13;;;;;;;7.87;7.07;;;;;;;18.54;43.46;97764.78;4978705;28;20281;-91
2023/03/04 08:02:40;;;;;;;7.70;6.70;;;;;;;18.30;43.16;97716.97;4966423;28;20306;-92
2023/03/04 08:05:07;;;;;;;7.73;6.97;;;;;;;18.88;43.50;97825.66;4978879;28;20226;-92
2023/03/04 08:07:33;;;;;;;7.20;6.50;;;;;;;18.92;43.41;97842.84;4973127;28;20201;-90
2023/03/04 08:10:00;;;;;;;7.97;7.17;;;;;;;18.93;43.32;97848.00;4960386;28;20681;-92
2023/03/04 08:12:27;;;;;;;7.53;6.73;;;;;;;18.81;43.57;97829.66;4949870;28;20226;-91
2023/03/04 08:14:53;;;;;;;7.50;6.70;;;;;;;18.59;43.21;97795.53;4961196;28;20226;-91
2023/03/04 08:17:20;;;;;;;6.93;6.23;;;;;;;18.97;43.41;97843.91;4964669;28;20216;-91
2023/03/04 08:19:46;;;;;;;7.10;6.40;;;;;;;19.33;43.38;97909.28;4958122;28;20210;-92
2023/03/04 08:22:13;;;;;;;7.37;6.67;;;;;;;19.21;43.52;97889.16;4978797;28;20784;-92
2023/03/04 08:24:40;;;;;;;6.73;6.10;;;;;;;18.20;43.42;97706.38;4964562;28;20230;-91
2023/03/04 08:27:06;;;;;;;6.93;6.13;;;;;;;18.95;43.32;97843.00;4976840;28;20202;-91
2023/03/04 08:29:33;;;;;;;6.90;6.30;;;;;;;19.06;43.39;97865.56;4980491;28;20203;-92
2023/03/04 08:31:59;;;;;;;6.90;6.20;;;;;;;18.92;43.41;97853.88;4980542;28;20222;-92
2023/03/04 08:34:26;;;;;;;6.83;6.13;;;;;;;18.81;43.84;97860.19;4956192;28;20228;-92
2023/03/04 08:36:53;;;;;;;6.40;5.80;;;;;;;19.14;43.39;97886.28;4980575;28;20312;-92
2023/03/04 08:39:19;;;;;;;6.30;5.70;;;;;;;18.95;43.38;97851.47;5013342;28;20206;-91
2023/03/04 08:41:46;;;;;;;6.40;5.80;;;;;;;18.93;43.24;97858.19;4980166;28;20270;-89
2023/03/04 08:44:13;;;;;;;6.77;6.10;;;;;;;19.37;43.89;97936.63;4980204;28;20203;-91
2023/03/04 08:46:40;;;;;;;6.77;6.07;;;;;;;18.61;42.97;97791.34;4947843;28;20290;-91
2023/03/04 08:49:07;;;;;;;6.30;5.70;;;;;;;18.82;43.81;97850.88;4959263;28;20198;-91
2023/03/04 08:51:34;;;;;;;6.83;6.17;;;;;;;18.93;43.64;97863.28;4963466;28;20272;-92
2023/03/04 08:54:02;;;;;;;6.57;5.87;;;;;;;18.61;43.47;97807.50;4964299;28;20226;-92
2023/03/04 08:56:28;;;;;;;6.90;6.20;;;;;;;18.98;43.42;97873.69;4949216;28;20296;-92
2023/03/04 08:58:55;;;;;;;6.63;6.00;;;;;;;18.72;43.37;97825.81;4978253;28;20238;-90
2023/03/04 09:01:22;;;;;;;6.03;5.43;;;;;;;18.59;43.46;97805.69;4979583;28;20776;-92
2023/03/04 09:03:48;;;;;;;6.50;5.90;;;;;;;18.76;43.39;97827.66;5012855;28;20238;-92
2023/03/04 09:06:15;;;;;;;6.00;5.40;;;;;;;18.74;43.54;97836.94;4960766;28;20585;-92
2023/03/04 09:08:43;;;;;;;6.17;5.57;;;;;;;19.03;43.39;97880.72;4961993;28;20202;-91
2023/03/04 09:11:09;;;;;;;6.87;5.80;;;;;;;19.17;43.16;97920.44;4963622;28;20258;-92
2023/03/04 09:13:36;;;;;;;5.87;5.27;;;;;;;18.71;43.52;97824.06;4963545;28;20225;-92
2023/03/04 09:16:02;;;;;;;6.77;6.07;;;;;;;18.75;43.43;97836.13;4953596;28;20202;-92
2023/03/04 09:18:29;;;;;;;6.07;5.47;;;;;;;19.07;43.56;97907.22;4978880;28;20210;-92
2023/03/04 09:20:56;;;;;;;6.60;5.57;;;;;;;19.07;43.31;97891.94;4962929;28;20237;-91
2023/03/04 09:23:22;;;;;;;5.97;5.40;;;;;;;18.67;43.55;97820.50;4961600;28;20233;-92
2023/03/04 09:25:49;;;;;;;5.50;5.00;;;;;;;18.80;43.27;97850.78;4952178;28;20253;-92
2023/03/04 09:28:16;;;;;;;5.80;5.20;;;;;;;18.42;43.42;97781.16;4955751;28;20202;-93
2023/03/04 09:30:42;;;;;;;5.77;5.17;;;;;;;18.92;43.33;97889.53;4993899;28;20238;-92
2023/03/04 09:33:09;;;;;;;5.17;4.73;;;;;;;18.93;43.46;97878.56;4979427;28;20261;-92
2023/03/04 09:35:36;;;;;;;6.37;5.50;;;;;;;18.91;43.61;97869.97;4956703;28;20298;-92
2023/03/04 09:38:02;;;;;;;5.27;4.80;;;;;;;18.41;43.34;97774.34;4970146;28;20206;-92
2023/03/04 09:40:46;;;;;;;6.00;5.40;;;;;;;18.95;43.25;97876.94;4994024;28;20670;-91
2023/03/04 09:43:19;;;;;;;5.60;5.10;;;;;;;18.83;43.31;97853.47;4963416;28;20338;-92
2023/03/04 09:45:48;;;;;;;5.77;5.20;;;;;;;18.95;43.32;97889.69;4979163;28;20204;-91
2023/03/04 09:48:17;;;;;;;5.40;4.90;;;;;;;18.46;43.27;97800.84;4959311;28;20227;-92
2023/03/04 09:51:15;;;;;;;5.13;4.63;;;;;;;19.38;43.26;97953.66;4949476;28;20202;-92
2023/03/04 09:53:42;;;;;;;5.70;5.10;;;;;;;19.38;43.44;97958.75;4980399;28;20211;-92
2023/03/04 09:56:09;;;;;;;5.07;4.57;;;;;;;18.51;43.50;97802.81;5012361;28;20555;-92
2023/03/04 09:58:44;;;;;;;5.77;5.27;;;;;;;18.55;43.37;97814.88;4978886;28;20627;-92
2023/03/04 10:01:20;;;;;;;5.50;5.00;;;;;;;19.36;43.54;97961.22;4992099;28;20227;-92
2023/03/04 10:03:54;;;;;;;5.10;4.60;;;;;;;19.36;43.35;97958.69;4994539;28;20241;-92
2023/03/04 10:06:20;;;;;;;5.27;4.57;;;;;;;18.41;43.45;97815.03;4973239;28;20602;-91
2023/03/04 10:09:01;;;;;;;5.03;4.63;;;;;;;18.33;43.46;97775.63;4960788;28;20237;-92
2023/03/04 10:11:34;;;;;;;5.03;4.63;;;;;;;19.35;43.52;97945.88;4956322;28;20253;-92
2023/03/04 10:14:31;;;;;;;5.30;4.80;;;;;;;19.36;43.54;97940.00;4978046;28;20586;-92
2023/03/04 10:17:20;;;;;;;4.47;4.07;;;;;;;18.80;43.49;97845.69;4964334;28;20277;-91
2023/03/04 10:20:06;;;;;;;5.53;5.03;;;;;;;19.35;43.40;97945.88;4965709;28;20294;-92
2023/03/04 10:22:41;;;;;;;5.00;4.50;;;;;;;18.73;43.54;97843.69;4970609;28;20600;-92
2023/03/04 10:25:18;;;;;;;5.73;5.13;;;;;;;18.55;43.43;97809.78;4953442;28;20207;-92
2023/03/04 10:28:12;;;;;;;5.30;4.80;;;;;;;18.67;43.57;97828.16;4990636;28;20285;-92
2023/03/04 10:30:50;;;;;;;4.90;4.40;;;;;;;18.72;43.51;97841.06;4996568;28;20202;-92
2023/03/04 10:33:21;;;;;;;4.53;4.13;;;;;;;18.76;43.36;97863.31;4963398;28;20600;-92
2023/03/04 10:36:22;;;;;;;4.70;4.30;;;;;;;19.12;43.53;97904.06;4962574;28;20232;-92
2023/03/04 10:38:51;;;;;;;5.30;4.80;;;;;;;19.34;43.56;97941.59;4955838;28;20624;-91
2023/03/04 10:41:23;;;;;;;4.83;4.33;;;;;;;18.79;43.57;97854.16;4958910;28;20269;-92
2023/03/04 10:44:08;;;;;;;4.87;4.47;;;;;;;19.35;43.58;97951.84;4992021;28;20210;-91
2023/03/04 10:46:41;;;;;;;5.20;4.70;;;;;;;18.48;43.49;97786.53;4990372;28;20230;-92
2023/03/04 10:49:13;;;;;;;4.47;4.07;;;;;;;18.55;43.44;97811.44;4957929;28;20233;-92
2023/03/04 10:51:43;;;;;;;4.90;4.50;;;;;;;19.34;43.55;97939.94;4974964;28;20794;-92
2023/03/04 10:54:34;;;;;;;4.40;4.00;;;;;;;18.47;43.33;97787.34;4989320;28;20210;-92
2023/03/04 10:57:05;;;;;;;4.90;4.40;;;;;;;18.40;43.45;97787.84;4993551;28;20203;-92
2023/03/04 10:59:45;;;;;;;4.60;4.20;;;;;;;18.93;43.34;97862.41;4965825;28;20203;-92
2023/03/04 11:02:14;;;;;;;4.27;3.87;;;;;;;19.35;43.47;97939.13;4978351;28;20755;-92
2023/03/04 11:04:41;;;;;;;4.40;4.00;;;;;;;18.72;43.17;97831.78;5010476;28;20584;-92
2023/03/04 11:07:09;;;;;;;4.80;4.40;;;;;;;18.42;43.56;97786.25;4957215;28;20214;-92
2023/03/04 11:09:36;;;;;;;4.50;4.10;;;;;;;17.89;43.51;97680.34;4946727;28;20203;-92
2023/03/04 11:12:05;;;;;;;4.40;4.00;;;;;;;18.77;43.46;97832.84;4973265;28;20235;-92
2023/03/04 11:14:44;;;;;;;4.87;4.37;;;;;;;19.35;43.45;97928.03;4961585;28;20254;-90
2023/03/04 11:17:18;;;;;;;4.90;4.40;;;;;;;18.94;43.57;97859.06;4991487;28;20285;-90
2023/03/04 11:19:58;;;;;;;4.47;4.07;;;;;;;18.89;43.42;97851.19;4972979;28;20663;-93
2023/03/04 11:22:25;;;;;;;4.73;4.23;;;;;;;18.45;43.52;97769.44;4976504;28;20579;-92
2023/03/04 11:25:01;;;;;;;4.20;3.80;;;;;;;18.93;43.48;97870.06;4959477;28;20206;-92
2023/03/04 11:27:45;;;;;;;4.40;4.00;;;;;;;19.18;43.28;97890.69;4972449;28;20203;-93
2023/03/04 11:30:38;;;;;;;4.37;3.97;;;;;;;19.34;43.42;97911.00;4971102;28;20290;-92
2023/03/04 11:33:34;;;;;;;4.67;4.27;;;;;;;18.97;43.49;97847.34;5009703;28;20768;-92
2023/03/04 11:36:07;;;;;;;4.83;4.33;;;;;;;19.33;43.52;97910.13;4958325;28;20253;-92
2023/03/04 11:38:43;;;;;;;4.10;3.73;;;;;;;18.86;43.43;97834.94;4996495;28;20241;-92
2023/03/04 11:41:21;;;;;;;4.07;3.73;;;;;;;17.92;43.52;97661.81;4974581;28;20202;-92